Time;durP1;ratioP1;P1;durP2;ratioP2;P2;SDS_P1;SDS_P2;PMS_P1;PMS_P2;Temp;Humidity;BMP_temperature;BMP_pressure;BME280_temperature;BME280_humidity;BME280_pressure;Samples;Min_cycle;Max_cycle;Signal;HPM_P1;HPM_P2
2022/04/03 00:00:41;;;;;;;4.93;2.10;;;;;;;;;;4978416;28;20629;-83
2022/04/03 00:03:08;;;;;;;7.18;2.30;;;;;;;;;;4976107;28;20050;-85
2022/04/03 00:05:37;;;;;;;5.28;2.30;;;;;;;;;;4977192;28;20986;-82
2022/04/03 00:08:03;;;;;;;4.97;2.30;;;;;;;;;;4976627;28;20409;-84
2022/04/03 00:10:28;;;;;;;4.57;2.50;;;;;;;;;;4979121;28;20038;-84
2022/04/03 00:12:53;;;;;;;6.43;2.90;;;;;;;;;;4979365;28;20038;-83
2022/04/03 00:15:19;;;;;;;5.63;2.13;;;;;;;;;;4976926;28;20042;-83
2022/04/03 00:17:45;;;;;;;5.25;2.50;;;;;;;;;;4982611;28;20038;-82
2022/04/03 00:20:11;;;;;;;5.13;2.33;;;;;;;;;;4978047;28;20038;-85
2022/04/03 00:22:36;;;;;;;4.53;2.20;;;;;;;;;;4977848;28;20045;-84
2022/04/03 00:25:03;;;;;;;6.80;2.67;;;;;;;;;;4968917;28;20042;-83
2022/04/03 00:27:28;;;;;;;7.40;2.70;;;;;;;;;;4963617;28;20105;-84
2022/04/03 00:29:53;;;;;;;5.10;2.30;;;;;;;;;;4954385;28;20038;-84
2022/04/03 00:32:19;;;;;;;5.05;2.67;;;;;;;;;;4979206;28;20525;-83
2022/04/03 00:34:45;;;;;;;7.40;3.22;;;;;;;;;;4968473;28;20046;-84
2022/04/03 00:37:11;;;;;;;6.10;2.85;;;;;;;;;;4975982;28;20422;-82
2022/04/03 00:39:36;;;;;;;7.43;2.83;;;;;;;;;;4978198;28;20034;-82
2022/04/03 00:42:02;;;;;;;5.38;2.70;;;;;;;;;;4974835;28;20031;-84
2022/04/03 00:44:27;;;;;;;5.45;2.60;;;;;;;;;;4976987;28;20185;-84
2022/04/03 00:46:53;;;;;;;6.95;2.80;;;;;;;;;;4961865;28;20030;-83
2022/04/03 00:49:18;;;;;;;6.57;3.03;;;;;;;;;;4967995;28;20042;-82
2022/04/03 00:51:43;;;;;;;4.82;2.70;;;;;;;;;;4974695;28;20046;-82
2022/04/03 00:54:09;;;;;;;6.95;2.75;;;;;;;;;;4975521;28;20065;-84
2022/04/03 00:56:34;;;;;;;6.70;2.88;;;;;;;;;;4974975;28;20177;-83
2022/04/03 00:59:02;;;;;;;6.97;2.92;;;;;;;;;;4975376;28;20452;-83
2022/04/03 01:01:27;;;;;;;6.32;2.50;;;;;;;;;;4982500;28;20032;-84
2022/04/03 01:03:52;;;;;;;6.13;2.92;;;;;;;;;;4960256;28;20516;-82
2022/04/03 01:06:17;;;;;;;8.02;3.33;;;;;;;;;;4974973;28;20042;-84
2022/04/03 01:08:43;;;;;;;6.10;2.92;;;;;;;;;;4976221;28;20038;-82
2022/04/03 01:11:12;;;;;;;4.63;2.58;;;;;;;;;;4982280;28;20109;-82
2022/04/03 01:13:50;;;;;;;6.63;2.90;;;;;;;;;;4975841;28;20495;-83
2022/04/03 01:16:16;;;;;;;7.10;2.85;;;;;;;;;;4974311;28;20455;-85
2022/04/03 01:18:41;;;;;;;7.03;2.85;;;;;;;;;;4974668;28;20122;-82
2022/04/03 01:21:06;;;;;;;9.52;3.20;;;;;;;;;;4973923;28;20043;-83
2022/04/03 01:23:32;;;;;;;5.38;2.72;;;;;;;;;;4966858;28;20540;-85
2022/04/03 01:25:57;;;;;;;4.60;2.38;;;;;;;;;;4981943;28;20038;-84
2022/04/03 01:28:23;;;;;;;5.53;2.88;;;;;;;;;;4964756;28;20030;-83
2022/04/03 01:30:51;;;;;;;5.93;3.20;;;;;;;;;;4973021;28;20501;-83
2022/04/03 01:33:17;;;;;;;5.97;3.10;;;;;;;;;;4974653;28;20393;-85
2022/04/03 01:35:43;;;;;;;9.20;2.80;;;;;;;;;;4978796;28;20136;-82
2022/04/03 01:38:09;;;;;;;4.75;2.90;;;;;;;;;;4975565;28;20046;-84
2022/04/03 01:40:35;;;;;;;6.50;2.88;;;;;;;;;;4975935;28;20085;-82
2022/04/03 01:43:06;;;;;;;6.57;2.90;;;;;;;;;;4975202;28;20039;-82
2022/04/03 01:45:32;;;;;;;8.68;3.03;;;;;;;;;;4972433;28;20026;-83
2022/04/03 01:47:57;;;;;;;7.18;2.97;;;;;;;;;;4956874;28;20030;-84
2022/04/03 01:50:23;;;;;;;6.18;3.00;;;;;;;;;;4973997;28;20588;-83
2022/04/03 01:52:51;;;;;;;5.95;3.15;;;;;;;;;;4975644;28;20224;-85
2022/04/03 01:55:16;;;;;;;5.30;2.83;;;;;;;;;;4959725;28;20121;-85
2022/04/03 01:57:42;;;;;;;6.45;3.30;;;;;;;;;;4982012;28;20118;-82
2022/04/03 02:00:09;;;;;;;5.40;3.15;;;;;;;;;;4974144;28;20084;-82
2022/04/03 02:02:35;;;;;;;;;;;;;;;;;;4977217;28;20485;-83
2022/04/03 02:05:00;;;;;;;6.25;3.15;;;;;;;;;;4966675;28;20045;-83
2022/04/03 02:07:25;;;;;;;5.63;3.10;;;;;;;;;;4956988;28;20082;-83
2022/04/03 02:09:51;;;;;;;6.50;2.97;;;;;;;;;;4955427;28;20737;-85
2022/04/03 02:12:16;;;;;;;6.60;3.42;;;;;;;;;;4956643;28;20035;-84
2022/04/03 02:14:41;;;;;;;8.23;3.40;;;;;;;;;;4954886;28;20034;-82
2022/04/03 02:17:07;;;;;;;5.20;3.10;;;;;;;;;;4946845;28;20434;-84
2022/04/03 02:19:32;;;;;;;7.15;3.22;;;;;;;;;;4947550;28;20560;-84
2022/04/03 02:21:57;;;;;;;5.85;3.30;;;;;;;;;;4952289;28;20558;-84
2022/04/03 02:24:23;;;;;;;7.47;3.55;;;;;;;;;;4939118;28;20063;-83
2022/04/03 02:26:48;;;;;;;6.60;3.38;;;;;;;;;;4960703;28;20035;-83
2022/04/03 02:29:13;;;;;;;5.72;3.13;;;;;;;;;;4946805;28;20043;-84
2022/04/03 02:31:39;;;;;;;5.30;2.85;;;;;;;;;;4958717;28;20481;-84
2022/04/03 02:34:05;;;;;;;5.70;3.17;;;;;;;;;;4958961;28;20118;-85
2022/04/03 02:36:30;;;;;;;5.90;3.25;;;;;;;;;;4954065;28;20074;-84
2022/04/03 02:38:55;;;;;;;5.93;3.03;;;;;;;;;;4957107;28;20067;-83
2022/04/03 02:41:21;;;;;;;6.45;3.40;;;;;;;;;;4939370;28;20089;-82
2022/04/03 02:43:46;;;;;;;5.65;2.90;;;;;;;;;;4955345;28;20455;-85
2022/04/03 02:46:12;;;;;;;6.50;3.22;;;;;;;;;;4953366;28;20043;-83
2022/04/03 02:48:37;;;;;;;6.50;3.20;;;;;;;;;;4953189;28;20036;-84
2022/04/03 02:51:03;;;;;;;6.68;3.00;;;;;;;;;;4955322;28;20070;-83
2022/04/03 02:53:28;;;;;;;4.93;2.72;;;;;;;;;;4956707;28;20046;-84
2022/04/03 02:55:53;;;;;;;5.60;2.90;;;;;;;;;;4957726;28;20037;-85
2022/04/03 02:58:19;;;;;;;7.25;3.13;;;;;;;;;;4956312;28;20040;-83
2022/04/03 03:00:45;;;;;;;6.35;3.00;;;;;;;;;;4953187;28;20038;-84
2022/04/03 03:03:11;;;;;;;5.30;2.70;;;;;;;;;;4953785;28;20063;-84
2022/04/03 03:05:36;;;;;;;4.82;2.75;;;;;;;;;;4942912;28;20047;-84
2022/04/03 03:08:02;;;;;;;5.72;2.75;;;;;;;;;;4972891;28;20027;-86
2022/04/03 03:10:27;;;;;;;4.85;2.53;;;;;;;;;;4973048;28;20560;-83
2022/04/03 03:12:53;;;;;;;6.05;2.72;;;;;;;;;;4980641;28;20058;-84
2022/04/03 03:15:19;;;;;;;4.68;2.63;;;;;;;;;;4979281;28;20030;-84
2022/04/03 03:17:45;;;;;;;5.03;2.83;;;;;;;;;;4975375;28;20150;-83
2022/04/03 03:20:11;;;;;;;4.97;2.80;;;;;;;;;;4975748;28;20058;-84
2022/04/03 03:22:36;;;;;;;5.97;2.95;;;;;;;;;;4973225;28;20581;-83
2022/04/03 03:25:03;;;;;;;4.22;2.70;;;;;;;;;;4981212;28;20041;-83
2022/04/03 03:27:29;;;;;;;4.78;2.80;;;;;;;;;;4980204;28;20101;-84
2022/04/03 03:29:54;;;;;;;4.75;2.90;;;;;;;;;;4973762;28;20061;-83
2022/04/03 03:32:20;;;;;;;6.43;2.97;;;;;;;;;;4972924;28;20027;-83
2022/04/03 03:34:45;;;;;;;4.93;2.80;;;;;;;;;;4978323;28;20482;-83
2022/04/03 03:37:13;;;;;;;7.00;3.30;;;;;;;;;;4965384;28;20077;-83
2022/04/03 03:39:38;;;;;;;5.85;3.10;;;;;;;;;;4976092;28;20036;-83
2022/04/03 03:42:04;;;;;;;7.05;2.75;;;;;;;;;;4979115;28;20039;-83
2022/04/03 03:44:29;;;;;;;5.50;2.70;;;;;;;;;;4979028;28;20096;-84
2022/04/03 03:46:54;;;;;;;5.43;2.70;;;;;;;;;;4978272;28;20593;-83
2022/04/03 03:49:20;;;;;;;4.95;2.45;;;;;;;;;;4978533;28;20501;-83
2022/04/03 03:51:45;;;;;;;5.45;2.60;;;;;;;;;;4976352;28;20030;-83
2022/04/03 03:54:10;;;;;;;4.80;2.72;;;;;;;;;;4979438;28;20046;-83
2022/04/03 03:56:36;;;;;;;5.55;2.42;;;;;;;;;;4967720;28;20165;-83
2022/04/03 03:59:01;;;;;;;4.43;2.67;;;;;;;;;;4978107;28;20050;-83
2022/04/03 04:01:27;;;;;;;5.38;2.60;;;;;;;;;;4976485;28;20035;-85
2022/04/03 04:03:52;;;;;;;4.88;2.83;;;;;;;;;;4977137;28;20035;-84
2022/04/03 04:06:17;;;;;;;6.18;3.10;;;;;;;;;;4962316;28;20054;-83
2022/04/03 04:08:44;;;;;;;6.57;2.97;;;;;;;;;;4966356;28;20361;-84
2022/04/03 04:11:09;;;;;;;5.65;3.25;;;;;;;;;;4982982;28;20042;-83
2022/04/03 04:13:35;;;;;;;6.22;3.15;;;;;;;;;;4976576;28;20043;-82
2022/04/03 04:16:00;;;;;;;6.97;3.50;;;;;;;;;;4974886;28;20030;-83
2022/04/03 04:18:26;;;;;;;5.55;3.25;;;;;;;;;;4976844;28;20034;-86
2022/04/03 04:20:52;;;;;;;5.88;3.08;;;;;;;;;;4961890;28;20675;-82
2022/04/03 04:23:18;;;;;;;5.63;2.88;;;;;;;;;;4966686;28;20038;-83
2022/04/03 04:25:44;;;;;;;7.20;2.95;;;;;;;;;;4965850;28;20490;-86
2022/04/03 04:28:09;;;;;;;5.72;3.40;;;;;;;;;;4975891;28;20073;-87
2022/04/03 04:30:35;;;;;;;5.50;3.00;;;;;;;;;;4974367;28;20035;-86
2022/04/03 04:33:00;;;;;;;5.65;3.00;;;;;;;;;;4979298;28;20038;-88
2022/04/03 04:35:27;;;;;;;5.45;2.80;;;;;;;;;;4965952;28;20045;-87
2022/04/03 04:37:52;;;;;;;5.43;3.10;;;;;;;;;;4982689;28;20050;-86
2022/04/03 04:40:17;;;;;;;4.68;2.72;;;;;;;;;;4976450;28;20279;-86
2022/04/03 04:42:43;;;;;;;8.50;3.13;;;;;;;;;;4975279;28;20069;-87
2022/04/03 04:45:09;;;;;;;5.40;3.20;;;;;;;;;;4975031;28;20533;-83
2022/04/03 04:47:37;;;;;;;5.97;3.00;;;;;;;;;;4974298;28;20045;-84
2022/04/03 04:50:10;;;;;;;6.10;3.20;;;;;;;;;;4966260;28;20427;-84
2022/04/03 04:52:37;;;;;;;10.77;3.00;;;;;;;;;;4982352;28;20043;-84
2022/04/03 04:55:05;;;;;;;7.22;3.10;;;;;;;;;;4982796;28;20030;-84
2022/04/03 04:57:32;;;;;;;5.97;2.83;;;;;;;;;;4981783;28;20031;-83
2022/04/03 04:59:58;;;;;;;4.85;2.60;;;;;;;;;;4974406;28;20034;-84
2022/04/03 05:02:23;;;;;;;5.70;2.72;;;;;;;;;;4973833;28;20043;-85
2022/04/03 05:04:52;;;;;;;4.88;2.60;;;;;;;;;;4967858;28;20042;-85
2022/04/03 05:07:17;;;;;;;5.50;2.63;;;;;;;;;;4975031;28;20565;-84
2022/04/03 05:09:43;;;;;;;4.72;2.60;;;;;;;;;;4964497;28;20125;-85
2022/04/03 05:12:09;;;;;;;6.68;2.42;;;;;;;;;;4980682;28;20118;-84
2022/04/03 05:14:35;;;;;;;6.28;2.58;;;;;;;;;;4961361;28;20129;-83
2022/04/03 05:17:00;;;;;;;6.88;3.15;;;;;;;;;;4981233;28;20043;-83
2022/04/03 05:19:27;;;;;;;5.85;2.67;;;;;;;;;;4974514;28;20114;-83
2022/04/03 05:21:52;;;;;;;5.40;2.88;;;;;;;;;;4975468;28;20092;-87
2022/04/03 05:24:17;;;;;;;7.45;2.88;;;;;;;;;;4974498;28;20034;-88
2022/04/03 05:26:43;;;;;;;5.68;2.70;;;;;;;;;;4977069;28;20014;-89
2022/04/03 05:29:08;;;;;;;4.82;2.70;;;;;;;;;;4973870;28;20398;-87
2022/04/03 05:31:34;;;;;;;5.68;2.50;;;;;;;;;;4967333;28;20058;-86
2022/04/03 05:33:59;;;;;;;6.88;2.70;;;;;;;;;;4976058;28;20041;-87
2022/04/03 05:36:24;;;;;;;6.50;2.78;;;;;;;;;;4976469;28;20485;-87
2022/04/03 05:38:50;;;;;;;4.80;2.25;;;;;;;;;;4976791;28;20049;-86
2022/04/03 05:41:15;;;;;;;6.35;2.70;;;;;;;;;;4961462;28;20031;-89
2022/04/03 05:43:40;;;;;;;5.43;2.60;;;;;;;;;;4976593;28;20062;-87
2022/04/03 05:46:07;;;;;;;7.43;3.13;;;;;;;;;;4967378;28;20034;-86
2022/04/03 05:48:32;;;;;;;5.10;2.65;;;;;;;;;;4973742;28;20065;-87
2022/04/03 05:51:00;;;;;;;5.90;2.70;;;;;;;;;;4975829;28;20054;-87
2022/04/03 05:53:26;;;;;;;5.10;2.70;;;;;;;;;;4975556;28;20109;-87
2022/04/03 05:55:51;;;;;;;5.60;2.45;;;;;;;;;;4974296;28;20405;-87
2022/04/03 05:58:16;;;;;;;5.57;2.42;;;;;;;;;;4962403;28;20659;-87
2022/04/03 06:00:42;;;;;;;5.63;2.50;;;;;;;;;;4976381;28;20118;-87
2022/04/03 06:03:07;;;;;;;6.15;2.40;;;;;;;;;;4982270;28;20042;-87
2022/04/03 06:05:34;;;;;;;6.75;2.90;;;;;;;;;;4967843;28;20178;-86
2022/04/03 06:08:00;;;;;;;7.20;2.70;;;;;;;;;;4981913;28;20046;-87
2022/04/03 06:10:26;;;;;;;5.18;2.65;;;;;;;;;;4966645;28;20100;-88
2022/04/03 06:12:55;;;;;;;6.90;2.72;;;;;;;;;;4956753;28;20038;-87
2022/04/03 06:15:20;;;;;;;6.20;2.45;;;;;;;;;;4980767;28;20687;-87
2022/04/03 06:17:49;;;;;;;5.85;2.72;;;;;;;;;;4976978;28;20046;-87
2022/04/03 06:20:15;;;;;;;5.03;2.50;;;;;;;;;;4978854;28;20030;-89
2022/04/03 06:22:40;;;;;;;6.03;2.67;;;;;;;;;;4982748;28;20046;-87
2022/04/03 06:25:09;;;;;;;5.30;2.53;;;;;;;;;;4959665;28;20047;-90
2022/04/03 06:27:34;;;;;;;5.35;2.40;;;;;;;;;;4964924;28;20041;-85
2022/04/03 06:29:59;;;;;;;5.85;2.70;;;;;;;;;;4974673;28;20038;-86
2022/04/03 06:32:25;;;;;;;5.05;2.72;;;;;;;;;;4972746;28;20035;-87
2022/04/03 06:34:50;;;;;;;4.90;2.50;;;;;;;;;;4975702;28;20042;-87
2022/04/03 06:37:15;;;;;;;4.68;2.40;;;;;;;;;;4974755;28;20031;-85
2022/04/03 06:39:41;;;;;;;5.90;2.47;;;;;;;;;;4963804;28;20422;-85
2022/04/03 06:42:07;;;;;;;6.07;2.83;;;;;;;;;;4974343;28;20066;-84
2022/04/03 06:44:33;;;;;;;5.20;2.50;;;;;;;;;;4982757;28;20072;-85
2022/04/03 06:46:59;;;;;;;6.00;2.30;;;;;;;;;;4972796;28;20109;-85
2022/04/03 06:49:25;;;;;;;5.38;2.42;;;;;;;;;;4974836;28;20066;-86
2022/04/03 06:51:50;;;;;;;4.10;2.58;;;;;;;;;;4973435;28;20066;-85
2022/04/03 06:54:15;;;;;;;7.47;2.47;;;;;;;;;;4981995;28;20034;-86
2022/04/03 06:56:41;;;;;;;5.28;2.38;;;;;;;;;;4974680;28;20039;-86
2022/04/03 06:59:06;;;;;;;4.15;2.35;;;;;;;;;;4971979;28;20089;-86
2022/04/03 07:01:31;;;;;;;5.15;2.10;;;;;;;;;;4974606;28;20034;-84
2022/04/03 07:03:57;;;;;;;4.13;2.13;;;;;;;;;;4982238;28;20485;-85
2022/04/03 07:06:22;;;;;;;4.38;2.30;;;;;;;;;;4974735;28;20070;-86
2022/04/03 07:08:50;;;;;;;6.07;2.78;;;;;;;;;;4974016;28;20046;-86
2022/04/03 07:11:15;;;;;;;3.67;2.00;;;;;;;;;;4972101;28;20094;-85
2022/04/03 07:13:41;;;;;;;5.30;2.08;;;;;;;;;;4976152;28;20501;-84
2022/04/03 07:16:06;;;;;;;5.68;2.42;;;;;;;;;;4975602;28;20506;-83
2022/04/03 07:18:35;;;;;;;5.55;2.40;;;;;;;;;;4978681;28;20049;-83
2022/04/03 07:21:00;;;;;;;4.30;2.10;;;;;;;;;;4978622;28;20038;-83
2022/04/03 07:23:26;;;;;;;5.55;2.38;;;;;;;;;;4978213;28;20393;-84
2022/04/03 07:25:51;;;;;;;4.85;2.50;;;;;;;;;;4978808;28;20065;-85
2022/04/03 07:28:16;;;;;;;4.95;1.90;;;;;;;;;;4978366;28;20439;-84
2022/04/03 07:30:44;;;;;;;4.13;1.90;;;;;;;;;;4976124;28;20038;-84
2022/04/03 07:33:10;;;;;;;3.80;1.90;;;;;;;;;;4985920;28;20062;-84
2022/04/03 07:35:36;;;;;;;3.92;2.05;;;;;;;;;;4977347;28;20478;-83
2022/04/03 07:38:01;;;;;;;5.20;1.98;;;;;;;;;;4981826;28;20049;-84
2022/04/03 07:40:27;;;;;;;3.85;1.85;;;;;;;;;;4976055;28;20046;-84
2022/04/03 07:42:52;;;;;;;3.20;1.67;;;;;;;;;;4985980;28;20046;-83
2022/04/03 07:45:21;;;;;;;3.97;1.63;;;;;;;;;;4978197;28;20035;-83
2022/04/03 07:47:48;;;;;;;5.78;1.80;;;;;;;;;;4991630;28;20053;-84
2022/04/03 07:50:15;;;;;;;4.10;1.75;;;;;;;;;;4977644;28;20974;-84
2022/04/03 07:52:41;;;;;;;3.92;1.60;;;;;;;;;;4984889;28;20134;-84
2022/04/03 07:55:10;;;;;;;5.30;1.77;;;;;;;;;;4978271;28;20522;-85
2022/04/03 07:57:39;;;;;;;3.53;1.55;;;;;;;;;;4977983;28;20039;-84
2022/04/03 08:00:08;;;;;;;3.22;1.60;;;;;;;;;;4977230;28;20035;-82
2022/04/03 08:02:34;;;;;;;3.45;1.60;;;;;;;;;;4979787;28;20038;-86
2022/04/03 08:05:00;;;;;;;4.53;1.85;;;;;;;;;;4980247;28;20039;-84
2022/04/03 08:07:41;;;;;;;3.90;1.83;;;;;;;;;;4978715;28;20042;-85
2022/04/03 08:10:08;;;;;;;4.35;1.63;;;;;;;;;;4979058;28;20518;-84
2022/04/03 08:12:39;;;;;;;3.73;1.70;;;;;;;;;;4986651;28;20042;-86
2022/04/03 08:15:05;;;;;;;4.03;1.90;;;;;;;;;;4976422;28;20042;-84
2022/04/03 08:17:31;;;;;;;4.65;1.88;;;;;;;;;;4976816;28;20089;-85
2022/04/03 08:19:57;;;;;;;4.15;1.65;;;;;;;;;;4962002;28;20498;-85
2022/04/03 08:22:25;;;;;;;5.05;1.65;;;;;;;;;;4968509;28;20035;-85
2022/04/03 08:24:51;;;;;;;4.88;1.77;;;;;;;;;;4977274;28;20039;-87
2022/04/03 08:27:17;;;;;;;4.13;1.80;;;;;;;;;;4974130;28;20034;-86
2022/04/03 08:29:42;;;;;;;4.28;1.80;;;;;;;;;;4983963;28;20046;-84
2022/04/03 08:32:08;;;;;;;3.97;1.70;;;;;;;;;;4974335;28;20038;-85
2022/04/03 08:34:34;;;;;;;3.53;1.50;;;;;;;;;;4977007;28;20038;-85
2022/04/03 08:36:59;;;;;;;3.70;1.70;;;;;;;;;;4965571;28;20065;-84
2022/04/03 08:39:25;;;;;;;5.13;1.60;;;;;;;;;;4967085;28;20039;-85
2022/04/03 08:41:51;;;;;;;3.97;1.70;;;;;;;;;;4966608;28;20039;-85
2022/04/03 08:44:17;;;;;;;2.75;1.40;;;;;;;;;;4958754;28;20282;-86
2022/04/03 08:46:46;;;;;;;4.35;1.50;;;;;;;;;;4975444;28;20058;-85
2022/04/03 08:49:14;;;;;;;4.85;1.50;;;;;;;;;;4970423;28;20492;-86
2022/04/03 08:51:40;;;;;;;5.28;1.65;;;;;;;;;;4973113;28;20039;-85
2022/04/03 08:54:26;;;;;;;4.10;1.60;;;;;;;;;;4931834;28;20053;-86
2022/04/03 08:56:52;;;;;;;4.43;1.73;;;;;;;;;;4958219;28;20038;-85
2022/04/03 08:59:21;;;;;;;4.35;1.70;;;;;;;;;;4975762;28;20409;-86
2022/04/03 09:01:47;;;;;;;5.95;1.77;;;;;;;;;;4977721;28;20506;-86
2022/04/03 09:04:12;;;;;;;4.10;1.45;;;;;;;;;;4964052;28;20038;-86
2022/04/03 09:06:56;;;;;;;3.33;1.63;;;;;;;;;;4974092;28;20045;-85
2022/04/03 09:09:22;;;;;;;3.42;1.40;;;;;;;;;;4983922;28;20038;-85
2022/04/03 09:12:06;;;;;;;3.35;1.50;;;;;;;;;;4964324;28;20043;-84
2022/04/03 09:14:32;;;;;;;3.83;1.60;;;;;;;;;;4977955;28;20030;-84
2022/04/03 09:16:58;;;;;;;4.63;1.60;;;;;;;;;;4946480;28;20051;-84
2022/04/03 09:19:33;;;;;;;2.97;1.33;;;;;;;;;;4965017;28;20089;-84
2022/04/03 09:22:00;;;;;;;4.07;1.30;;;;;;;;;;4979610;28;20125;-84
2022/04/03 09:24:25;;;;;;;4.22;1.50;;;;;;;;;;4964581;28;20062;-82
2022/04/03 09:26:57;;;;;;;3.90;1.50;;;;;;;;;;4965551;28;20035;-85
2022/04/03 09:29:23;;;;;;;4.28;1.70;;;;;;;;;;4976634;28;20046;-85
2022/04/03 09:31:57;;;;;;;3.60;1.30;;;;;;;;;;4975729;28;20556;-84
2022/04/03 09:34:25;;;;;;;3.42;1.67;;;;;;;;;;4973692;28;20517;-86
2022/04/03 09:37:01;;;;;;;3.90;1.70;;;;;;;;;;4955496;28;20105;-84
2022/04/03 09:39:29;;;;;;;3.33;1.50;;;;;;;;;;4982335;28;20030;-83
2022/04/03 09:41:55;;;;;;;3.85;1.40;;;;;;;;;;4972230;28;20494;-82
2022/04/03 09:44:25;;;;;;;3.55;1.60;;;;;;;;;;4967484;28;20544;-86
2022/04/03 09:47:26;;;;;;;4.78;1.83;;;;;;;;;;4981786;28;20038;-83
2022/04/03 09:50:05;;;;;;;3.90;1.90;;;;;;;;;;4975600;28;20039;-84
2022/04/03 09:52:39;;;;;;;3.72;1.65;;;;;;;;;;4982976;28;20623;-85
2022/04/03 09:55:15;;;;;;;4.72;2.00;;;;;;;;;;4976715;28;20034;-85
2022/04/03 09:57:41;;;;;;;3.72;1.67;;;;;;;;;;4974642;28;20434;-83
2022/04/03 10:00:07;;;;;;;4.85;1.83;;;;;;;;;;4962520;28;20063;-84
2022/04/03 10:02:33;;;;;;;3.80;1.52;;;;;;;;;;4973665;28;20117;-83
2022/04/03 10:04:58;;;;;;;3.33;1.30;;;;;;;;;;4978407;28;20057;-85
2022/04/03 10:07:24;;;;;;;5.50;1.40;;;;;;;;;;4981220;28;20039;-88
2022/04/03 10:09:51;;;;;;;3.08;1.55;;;;;;;;;;4965323;28;20034;-84
2022/04/03 10:12:21;;;;;;;3.17;1.60;;;;;;;;;;4980682;28;20046;-83
2022/04/03 10:14:48;;;;;;;5.25;1.60;;;;;;;;;;4975898;28;21107;-83
2022/04/03 10:17:17;;;;;;;3.90;1.90;;;;;;;;;;4964360;28;20031;-84
2022/04/03 10:19:43;;;;;;;4.75;1.52;;;;;;;;;;4975777;28;20047;-84
2022/04/03 10:22:30;;;;;;;3.60;1.80;;;;;;;;;;4968918;28;20494;-86
2022/04/03 10:24:58;;;;;;;4.95;1.60;;;;;;;;;;4964840;28;20426;-85
2022/04/03 10:27:29;;;;;;;3.83;1.60;;;;;;;;;;4971532;28;20039;-84
2022/04/03 10:29:57;;;;;;;4.88;1.63;;;;;;;;;;4960572;28;20133;-83
2022/04/03 10:32:24;;;;;;;3.60;1.80;;;;;;;;;;4972067;28;20044;-84
2022/04/03 10:34:54;;;;;;;3.55;1.67;;;;;;;;;;4962525;28;20042;-83
2022/04/03 10:37:44;;;;;;;5.38;1.63;;;;;;;;;;4964334;28;20048;-84
2022/04/03 10:40:17;;;;;;;3.15;1.42;;;;;;;;;;4960452;28;20038;-83
2022/04/03 10:42:53;;;;;;;3.95;1.63;;;;;;;;;;4972361;28;20109;-84
2022/04/03 10:45:24;;;;;;;4.50;1.55;;;;;;;;;;4979060;28;20041;-84
2022/04/03 10:47:49;;;;;;;2.92;1.40;;;;;;;;;;4981005;28;20045;-85
2022/04/03 10:50:15;;;;;;;3.78;1.27;;;;;;;;;;4971167;28;20424;-85
2022/04/03 10:52:40;;;;;;;4.30;1.63;;;;;;;;;;4973071;28;20045;-84
2022/04/03 10:55:25;;;;;;;3.67;1.30;;;;;;;;;;4980667;28;20054;-83
2022/04/03 10:57:54;;;;;;;2.92;1.27;;;;;;;;;;4974018;28;20042;-83
2022/04/03 11:00:20;;;;;;;4.13;1.50;;;;;;;;;;4972179;28;20045;-85
2022/04/03 11:02:55;;;;;;;4.60;1.80;;;;;;;;;;4980042;28;20442;-83
2022/04/03 11:05:23;;;;;;;3.25;1.38;;;;;;;;;;4972571;28;20046;-85
2022/04/03 11:07:58;;;;;;;3.53;1.55;;;;;;;;;;4971819;28;20441;-85
2022/04/03 11:10:42;;;;;;;4.53;1.60;;;;;;;;;;4972842;28;20030;-86
2022/04/03 11:13:08;;;;;;;6.25;1.50;;;;;;;;;;4971099;28;20383;-84
2022/04/03 11:15:49;;;;;;;3.80;1.30;;;;;;;;;;4975267;28;20094;-84
2022/04/03 11:18:52;;;;;;;2.33;1.23;;;;;;;;;;4974230;28;20568;-84
2022/04/03 11:21:18;;;;;;;5.35;1.60;;;;;;;;;;4970879;28;20161;-84
2022/04/03 11:23:45;;;;;;;4.53;1.45;;;;;;;;;;4974502;28;20038;-84
2022/04/03 11:26:11;;;;;;;4.15;1.48;;;;;;;;;;4971965;28;20129;-83
2022/04/03 11:28:36;;;;;;;3.20;1.27;;;;;;;;;;4974503;28;20073;-82
2022/04/03 11:31:04;;;;;;;3.97;1.60;;;;;;;;;;4971812;28;20129;-84
2022/04/03 11:33:29;;;;;;;3.47;1.52;;;;;;;;;;4945603;28;20482;-82
2022/04/03 11:36:21;;;;;;;4.95;1.70;;;;;;;;;;4971422;28;20179;-83
2022/04/03 11:38:48;;;;;;;4.10;1.70;;;;;;;;;;4973405;28;20375;-83
2022/04/03 11:41:20;;;;;;;3.75;1.90;;;;;;;;;;4972715;28;20038;-82
2022/04/03 11:44:15;;;;;;;7.35;1.95;;;;;;;;;;4956252;28;20043;-82
2022/04/03 11:46:43;;;;;;;3.65;1.83;;;;;;;;;;4965489;28;20035;-82
2022/04/03 11:49:14;;;;;;;5.38;2.00;;;;;;;;;;4972382;28;20031;-82
2022/04/03 11:51:40;;;;;;;4.35;1.88;;;;;;;;;;4970835;28;20030;-82
2022/04/03 11:54:06;;;;;;;4.82;1.70;;;;;;;;;;4980089;28;20422;-82
2022/04/03 11:56:35;;;;;;;3.10;1.60;;;;;;;;;;4978844;28;20072;-82
2022/04/03 11:59:01;;;;;;;3.60;2.00;;;;;;;;;;4973667;28;20058;-82
2022/04/03 12:01:28;;;;;;;4.07;1.65;;;;;;;;;;4969841;28;20424;-83
2022/04/03 12:04:00;;;;;;;3.72;1.73;;;;;;;;;;4964927;28;20043;-83
2022/04/03 12:06:26;;;;;;;6.88;1.92;;;;;;;;;;4977640;28;20046;-83
2022/04/03 12:08:52;;;;;;;4.40;1.67;;;;;;;;;;4976387;28;20083;-84
2022/04/03 12:11:20;;;;;;;5.53;2.00;;;;;;;;;;4975976;28;20031;-83
2022/04/03 12:13:46;;;;;;;3.28;1.73;;;;;;;;;;4984833;28;20430;-82
2022/04/03 12:16:19;;;;;;;5.30;1.83;;;;;;;;;;4974104;28;20037;-84
2022/04/03 12:19:02;;;;;;;4.78;2.03;;;;;;;;;;4977784;28;20708;-83
2022/04/03 12:21:43;;;;;;;3.65;1.70;;;;;;;;;;4975684;28;20129;-83
2022/04/03 12:24:09;;;;;;;3.67;1.50;;;;;;;;;;4977393;28;20568;-84
2022/04/03 12:26:36;;;;;;;4.22;1.60;;;;;;;;;;4977207;28;20139;-83
2022/04/03 12:29:01;;;;;;;4.30;1.63;;;;;;;;;;4977737;28;20032;-83
2022/04/03 12:31:34;;;;;;;4.88;1.63;;;;;;;;;;4974185;28;20041;-82
2022/04/03 12:34:16;;;;;;;3.30;1.50;;;;;;;;;;4975263;28;20363;-83
2022/04/03 12:36:46;;;;;;;4.40;1.70;;;;;;;;;;4972869;28;20042;-83
2022/04/03 12:39:42;;;;;;;4.72;1.70;;;;;;;;;;4981880;28;20034;-82
2022/04/03 12:42:32;;;;;;;4.20;1.60;;;;;;;;;;4980503;28;20030;-83
2022/04/03 12:45:01;;;;;;;3.35;1.30;;;;;;;;;;4975737;28;20126;-83
2022/04/03 12:47:35;;;;;;;5.57;1.23;;;;;;;;;;4974333;28;20038;-83
2022/04/03 12:50:06;;;;;;;2.50;1.02;;;;;;;;;;4977296;28;20038;-83
2022/04/03 12:52:53;;;;;;;2.75;1.23;;;;;;;;;;4975298;28;20074;-83
2022/04/03 12:55:21;;;;;;;4.77;1.70;;;;;;;;;;4955687;28;20393;-83
2022/04/03 12:58:32;;;;;;;2.95;1.30;;;;;;;;;;4955393;28;20503;-82
2022/04/03 13:01:11;;;;;;;4.43;1.52;;;;;;;;;;4979997;28;20575;-83
2022/04/03 13:03:45;;;;;;;4.63;1.52;;;;;;;;;;4974601;28;20089;-83
2022/04/03 13:06:14;;;;;;;4.32;1.52;;;;;;;;;;4981124;28;21092;-83
2022/04/03 13:08:50;;;;;;;4.15;1.52;;;;;;;;;;4980662;28;20077;-82
2022/04/03 13:11:43;;;;;;;3.83;1.40;;;;;;;;;;4976973;28;20041;-82
2022/04/03 13:14:23;;;;;;;4.70;1.45;;;;;;;;;;4974103;28;20027;-82
2022/04/03 13:16:50;;;;;;;4.35;1.30;;;;;;;;;;4974913;28;20042;-82
2022/04/03 13:19:16;;;;;;;4.27;1.50;;;;;;;;;;4982319;28;20514;-83
2022/04/03 13:21:42;;;;;;;2.75;1.13;;;;;;;;;;4975583;28;20305;-84
2022/04/03 13:24:08;;;;;;;5.53;1.63;;;;;;;;;;4973147;28;20039;-83
2022/04/03 13:26:34;;;;;;;3.08;1.30;;;;;;;;;;4966352;28;20050;-81
2022/04/03 13:28:59;;;;;;;3.40;1.42;;;;;;;;;;4974357;28;20552;-81
2022/04/03 13:31:25;;;;;;;5.63;1.85;;;;;;;;;;4972691;28;20029;-83
2022/04/03 13:33:50;;;;;;;4.10;1.90;;;;;;;;;;4976877;28;20034;-83
2022/04/03 13:36:16;;;;;;;5.40;1.40;;;;;;;;;;4974465;28;20446;-84
2022/04/03 13:38:41;;;;;;;4.25;1.30;;;;;;;;;;4975915;28;20035;-84
2022/04/03 13:41:07;;;;;;;4.00;1.20;;;;;;;;;;4957103;28;20038;-84
2022/04/03 13:43:33;;;;;;;4.25;1.27;;;;;;;;;;4980710;28;20748;-83
2022/04/03 13:46:01;;;;;;;2.85;1.10;;;;;;;;;;4981549;28;20034;-83
2022/04/03 13:48:32;;;;;;;4.95;1.30;;;;;;;;;;4971669;28;20486;-83
2022/04/03 13:51:00;;;;;;;2.50;1.00;;;;;;;;;;4981244;28;20038;-83
2022/04/03 13:53:26;;;;;;;4.40;1.20;;;;;;;;;;4973616;28;20037;-84
2022/04/03 13:55:52;;;;;;;3.20;1.27;;;;;;;;;;4981605;28;20385;-83
2022/04/03 13:58:17;;;;;;;3.50;1.17;;;;;;;;;;4959267;28;20034;-83
2022/04/03 14:00:43;;;;;;;3.47;1.23;;;;;;;;;;4958743;28;20035;-83
2022/04/03 14:03:09;;;;;;;4.35;1.40;;;;;;;;;;4967882;28;20034;-84
2022/04/03 14:05:34;;;;;;;4.15;1.40;;;;;;;;;;4973666;28;20050;-84
2022/04/03 14:08:00;;;;;;;4.55;1.70;;;;;;;;;;4965630;28;20023;-83
2022/04/03 14:10:25;;;;;;;5.00;1.27;;;;;;;;;;4965263;28;20062;-84
2022/04/03 14:12:51;;;;;;;3.10;1.30;;;;;;;;;;4976612;28;20421;-84
2022/04/03 14:15:16;;;;;;;4.30;1.30;;;;;;;;;;4975906;28;20512;-84
2022/04/03 14:17:41;;;;;;;5.65;1.30;;;;;;;;;;4974575;28;20043;-84
2022/04/03 14:20:10;;;;;;;5.50;1.70;;;;;;;;;;4959395;28;20050;-84
2022/04/03 14:22:36;;;;;;;4.65;1.25;;;;;;;;;;4974398;28;20093;-83
2022/04/03 14:25:03;;;;;;;4.53;1.33;;;;;;;;;;4976780;28;20461;-84
2022/04/03 14:27:29;;;;;;;3.47;1.20;;;;;;;;;;4971673;28;20037;-83
2022/04/03 14:29:56;;;;;;;4.90;1.50;;;;;;;;;;4966888;28;20042;-83
2022/04/03 14:32:21;;;;;;;3.45;1.40;;;;;;;;;;4972749;28;20042;-84
2022/04/03 14:34:46;;;;;;;3.15;1.50;;;;;;;;;;4972953;28;20042;-83
2022/04/03 14:37:12;;;;;;;4.13;1.42;;;;;;;;;;4972103;28;20510;-83
2022/04/03 14:39:37;;;;;;;5.45;1.60;;;;;;;;;;4972131;28;20034;-83
2022/04/03 14:42:02;;;;;;;5.50;1.88;;;;;;;;;;4972959;28;20470;-84
2022/04/03 14:44:28;;;;;;;5.47;1.80;;;;;;;;;;4974296;28;20084;-84
2022/04/03 14:46:53;;;;;;;4.38;1.60;;;;;;;;;;4971511;28;20045;-84